Celebrity Century — 9HJI9 — position and weather

sailwx.info

Track history (hours):
 
Tides and Currents Weather Stations Pressure Air Temp Water Temp Dewpoint Dewpoint Depression Visibility Wind Speed Wind Dir Waves Ship Positions

Celebrity Century

Last reported at 2014-Oct-24 20:31 UTC. Time now 2014-Oct-25 07:44 UTC.
Position S 38°37' E 141°54'.

; draft 8 m.

Type: Ship. MMSI: 249054000.

Date/timePositionNaut miles runAvg speedWind from/ knotsBaromVisibWave heightAir tempDewpointWater temp
2014-Oct-24 20:31S 38°37' E 141°54'1414.8
2014-Oct-24 19:33S 38°42' E 142°12'1514.8
2014-Oct-24 18:32S 38°46' E 142°30'1814.6
2014-Oct-24 17:19S 38°50' E 142°52'134 4.6
2014-Oct-23 12:20S 39°04' E 145°44'1215.2
2014-Oct-23 11:33S 39°09' E 145°57'1515.0
2014-Oct-23 10:32S 39°11' E 146°17'1717.5
2014-Oct-23 09:33S 39°07' E 146°38'1717.3
2014-Oct-23 08:33S 39°01' E 146°59'1717.0
2014-Oct-23 07:33S 38°56' E 147°20'8716.7
2014-Oct-23 02:21S 38°18' E 149°00'3117.0
2014-Oct-23 00:30S 38°02' E 149°34'1717.3
2014-Oct-22 23:31S 37°52' E 149°52'1717.2
2014-Oct-22 22:33S 37°44' E 150°11'1615.6
2014-Oct-22 21:33S 37°30' E 150°20'1717.1
2014-Oct-22 20:33S 37°14' E 150°26'206 9.7
2014-Oct-21 23:14S 33°52' E 151°13'0 0.0
2014-Oct-21 22:32S 33°52' E 151°13'64 6.9
2014-Oct-21 13:18S 33°11' E 152°12'1215.9
2014-Oct-21 12:33S 33°04' E 152°23'1717.0
2014-Oct-21 11:33S 32°54' E 152°39'1615.9
2014-Oct-21 10:33S 32°43' E 152°53'  
Track history (hours):
 
Tides and Currents Weather Stations Pressure Air Temp Water Temp Dewpoint Dewpoint Depression Visibility Wind Speed Wind Dir Waves Ship Positions

Celebrity Century

Last reported at 2014-Oct-24 20:31 UTC. Time now 2014-Oct-25 07:44 UTC.
Position S 38°37' E 141°54'.

; draft 8 m.

Type: Ship. MMSI: 249054000.

Date/timePositionNaut miles runAvg speedWind from/ knotsBaromVisibWave heightAir tempDewpointWater temp
2014-Oct-24 20:31S 38°37' E 141°54'1414.8
2014-Oct-24 19:33S 38°42' E 142°12'1514.8
2014-Oct-24 18:32S 38°46' E 142°30'1814.6
2014-Oct-24 17:19S 38°50' E 142°52'134 4.6
2014-Oct-23 12:20S 39°04' E 145°44'1215.2
2014-Oct-23 11:33S 39°09' E 145°57'1515.0
2014-Oct-23 10:32S 39°11' E 146°17'1717.5
2014-Oct-23 09:33S 39°07' E 146°38'1717.3
2014-Oct-23 08:33S 39°01' E 146°59'1717.0
2014-Oct-23 07:33S 38°56' E 147°20'8716.7
2014-Oct-23 02:21S 38°18' E 149°00'3117.0
2014-Oct-23 00:30S 38°02' E 149°34'1717.3
2014-Oct-22 23:31S 37°52' E 149°52'1717.2
2014-Oct-22 22:33S 37°44' E 150°11'1615.6
2014-Oct-22 21:33S 37°30' E 150°20'1717.1
2014-Oct-22 20:33S 37°14' E 150°26'206 9.7
2014-Oct-21 23:14S 33°52' E 151°13'0 0.0
2014-Oct-21 22:32S 33°52' E 151°13'64 6.9
2014-Oct-21 13:18S 33°11' E 152°12'1215.9
2014-Oct-21 12:33S 33°04' E 152°23'1717.0
2014-Oct-21 11:33S 32°54' E 152°39'1615.9
2014-Oct-21 10:33S 32°43' E 152°53'  

Dump ship's entire track history